Meteo Giornale » Osservazioni meteo Egitto » Cairo

ore: 14:00 - Osservazioni Meteo Cairo
Lat. 30° 8' N Lon. 31° 24' E Alt. 64 metri s.l.m.

nuvoloso Africa/Cairo

37 °C

Nuvoloso

Temp. 24 Ore

19 °C

37 °C

Nord

3.7 Km/h

Dew point 3 °C

Umidità 12 %

Visibilità  10 Km

Il sole sorge alle ore 04:51

Il sole tramonta alle ore 18:52

Data e Ora Cielo e Fenomeni T °C DP °C Um. % Pres. hPa Vis. km Vento km/h
Oggi h: 14:00 nuvoloso Nuvoloso 37 3 12 1009 10 N 3.7
Oggi h: 13:30 nuvoloso Nuvoloso 36 3 12 1009 10 S/SO 9.3
Oggi h: 13:00 nuvoloso Nuvoloso 35 3 13 1010 10 SO 9.3
Oggi h: 12:30 nuvoloso Nuvoloso 35 3 13 1010 10 NE 11.1
Oggi h: 12:00 nuvoloso Nuvoloso 35 2 12 1010 10 E/NE 16.7
Oggi h: 11:30 nuvoloso Nuvoloso 34 3 14 1010 10 E 20.3
Oggi h: 11:00 nuvoloso Nuvoloso 33 3 15 1011 10 E 25.9
Oggi h: 10:30 sereno Sereno 33 4 16 1011 10 E 35.2
Oggi h: 10:00 sereno Sereno 32 3 15 1011 10 E 29.6
Oggi h: 09:30 sereno Sereno 30 3 17 1011 10 E 33.3
Oggi h: 09:00 sereno Sereno 29 3 18 1011 10 E 35.2
Oggi h: 08:30 sereno Sereno 28 2 18 1012 10 E 25.9
Oggi h: 08:00 sereno Sereno 26 0 18 1012 10 E 22.2
Oggi h: 07:30 sereno Sereno 25 4 25 1013 10 E 18.5
Oggi h: 07:00 sereno Sereno 23 8 38 1013 10 E 18.5
Oggi h: 06:00 sereno Sereno 20 13 64 1013 10 E/NE 24
Oggi h: 05:30 sereno Sereno 19 12 63 1013 10 E/NE 24
Oggi h: 05:00 sereno Sereno 19 12 63 1013 10 E/NE 24
Oggi h: 04:30 sereno Sereno 19 12 63 1013 10 E/NE 16.7
Oggi h: 04:00 sereno Sereno 19 12 63 1014 10 E/NE 16.7
Oggi h: 03:30 sereno Sereno 19 12 63 1013 10 E/NE 18.5
Oggi h: 03:00 sereno Sereno 20 12 59 1014 10 E/NE 18.5
Oggi h: 02:30 sereno Sereno 20 12 59 1014 10 NE 20.3
Oggi h: 02:00 sereno Sereno 20 10 52 1014 10 NE 14.8
Oggi h: 01:30 sereno Sereno 20 11 56 1014 10 NE 16.7
Oggi h: 01:00 sereno Sereno 20 10 52 1015 10 N/NE 18.5
Oggi h: 00:00 sereno Sereno 21 10 49 1015 10 N/NE 18.5
Ieri h: 23:00 sereno Sereno 22 10 46 1015 10 NE 22.2
Ieri h: 22:30 sereno Sereno 22 7 37 1015 10 NE 24
Ieri h: 22:00 sereno Sereno 22 5 32 1015 10 NE 25.9
Ieri h: 21:00 sereno Sereno 23 9 40 1015 10 NE 24
Ieri h: 20:30 sereno Sereno 24 9 38 1015 10 N/NE 24
Ieri h: 20:00 sereno Sereno 25 9 36 1015 10 N/NE 27.8
Ieri h: 19:30 sereno Sereno 26 10 36 1015 10 N/NE 24
Ieri h: 19:00 sereno Sereno 27 7 28 1014 10 N/NE 24
Ieri h: 18:00 sereno Sereno 28 6 24 1014 10 N 24
Ieri h: 17:00 sereno Sereno 28 6 24 1014 10 N 27.8
Ieri h: 16:30 sereno Sereno 29 5 21 1014 10 N 27.8
Ieri h: 16:00 sereno Sereno 29 6 23 1014 10 N 24